sensor_id;sensor_type;location;lat;lon;timestamp;P1;durP1;ratioP1;P2;durP2;ratioP2
15913;SDS011;8055;51.930;8.840;2023-04-25T00:02:07;18.20;;;7.93;;
15913;SDS011;8055;51.930;8.840;2023-04-25T00:04:33;21.73;;;8.15;;
15913;SDS011;8055;51.930;8.840;2023-04-25T00:06:59;28.55;;;9.45;;
15913;SDS011;8055;51.930;8.840;2023-04-25T00:09:28;22.73;;;8.30;;
15913;SDS011;8055;51.930;8.840;2023-04-25T00:11:53;23.63;;;8.73;;
15913;SDS011;8055;51.930;8.840;2023-04-25T00:14:18;23.48;;;8.05;;
15913;SDS011;8055;51.930;8.840;2023-04-25T00:16:44;19.65;;;7.65;;
15913;SDS011;8055;51.930;8.840;2023-04-25T00:19:09;20.77;;;7.55;;
15913;SDS011;8055;51.930;8.840;2023-04-25T00:21:35;19.95;;;7.85;;
15913;SDS011;8055;51.930;8.840;2023-04-25T00:24:02;18.10;;;7.68;;
15913;SDS011;8055;51.930;8.840;2023-04-25T00:26:28;26.33;;;8.38;;
15913;SDS011;8055;51.930;8.840;2023-04-25T00:28:53;16.40;;;7.68;;
15913;SDS011;8055;51.930;8.840;2023-04-25T00:31:19;24.88;;;8.45;;
15913;SDS011;8055;51.930;8.840;2023-04-25T00:33:44;26.45;;;8.65;;
15913;SDS011;8055;51.930;8.840;2023-04-25T00:36:09;23.27;;;8.38;;
15913;SDS011;8055;51.930;8.840;2023-04-25T00:38:35;21.70;;;8.07;;
15913;SDS011;8055;51.930;8.840;2023-04-25T00:41:00;21.00;;;7.75;;
15913;SDS011;8055;51.930;8.840;2023-04-25T00:43:26;21.58;;;7.30;;
15913;SDS011;8055;51.930;8.840;2023-04-25T00:45:52;23.52;;;8.25;;
15913;SDS011;8055;51.930;8.840;2023-04-25T00:48:18;19.25;;;7.97;;
15913;SDS011;8055;51.930;8.840;2023-04-25T00:50:48;22.55;;;8.68;;
15913;SDS011;8055;51.930;8.840;2023-04-25T00:53:17;25.83;;;9.00;;
15913;SDS011;8055;51.930;8.840;2023-04-25T00:55:42;23.58;;;7.95;;
15913;SDS011;8055;51.930;8.840;2023-04-25T00:58:08;24.63;;;8.82;;
15913;SDS011;8055;51.930;8.840;2023-04-25T01:00:33;25.90;;;9.73;;
15913;SDS011;8055;51.930;8.840;2023-04-25T01:02:58;20.40;;;8.32;;
15913;SDS011;8055;51.930;8.840;2023-04-25T01:05:25;22.63;;;8.70;;
15913;SDS011;8055;51.930;8.840;2023-04-25T01:07:50;25.58;;;9.00;;
15913;SDS011;8055;51.930;8.840;2023-04-25T01:10:16;21.13;;;8.55;;
15913;SDS011;8055;51.930;8.840;2023-04-25T01:12:41;21.33;;;8.43;;
15913;SDS011;8055;51.930;8.840;2023-04-25T01:15:06;19.48;;;8.57;;
15913;SDS011;8055;51.930;8.840;2023-04-25T01:17:33;25.25;;;9.13;;
15913;SDS011;8055;51.930;8.840;2023-04-25T01:20:00;20.80;;;9.27;;
15913;SDS011;8055;51.930;8.840;2023-04-25T01:22:30;18.77;;;8.13;;
15913;SDS011;8055;51.930;8.840;2023-04-25T01:24:56;21.38;;;9.35;;
15913;SDS011;8055;51.930;8.840;2023-04-25T01:27:22;22.77;;;9.82;;
15913;SDS011;8055;51.930;8.840;2023-04-25T01:29:47;18.98;;;8.93;;
15913;SDS011;8055;51.930;8.840;2023-04-25T01:32:14;27.65;;;10.77;;
15913;SDS011;8055;51.930;8.840;2023-04-25T01:34:41;25.27;;;9.52;;
15913;SDS011;8055;51.930;8.840;2023-04-25T01:37:06;23.77;;;10.43;;
15913;SDS011;8055;51.930;8.840;2023-04-25T01:39:32;28.52;;;11.32;;
15913;SDS011;8055;51.930;8.840;2023-04-25T01:41:58;24.30;;;11.27;;
15913;SDS011;8055;51.930;8.840;2023-04-25T01:44:24;26.95;;;11.45;;
15913;SDS011;8055;51.930;8.840;2023-04-25T01:46:50;28.20;;;11.20;;
15913;SDS011;8055;51.930;8.840;2023-04-25T01:49:16;23.63;;;11.30;;
15913;SDS011;8055;51.930;8.840;2023-04-25T01:51:41;25.60;;;10.85;;
15913;SDS011;8055;51.930;8.840;2023-04-25T01:54:08;32.42;;;11.73;;
15913;SDS011;8055;51.930;8.840;2023-04-25T01:56:36;27.00;;;11.38;;
15913;SDS011;8055;51.930;8.840;2023-04-25T01:59:04;24.80;;;10.77;;
15913;SDS011;8055;51.930;8.840;2023-04-25T02:01:30;27.88;;;11.68;;
15913;SDS011;8055;51.930;8.840;2023-04-25T02:03:56;25.58;;;11.85;;
15913;SDS011;8055;51.930;8.840;2023-04-25T02:06:21;29.02;;;11.35;;
15913;SDS011;8055;51.930;8.840;2023-04-25T02:08:46;23.25;;;11.10;;
15913;SDS011;8055;51.930;8.840;2023-04-25T02:11:12;23.10;;;11.18;;
15913;SDS011;8055;51.930;8.840;2023-04-25T02:13:37;22.92;;;10.75;;
15913;SDS011;8055;51.930;8.840;2023-04-25T02:16:03;21.80;;;10.75;;
15913;SDS011;8055;51.930;8.840;2023-04-25T02:18:28;29.50;;;11.85;;
15913;SDS011;8055;51.930;8.840;2023-04-25T02:20:54;27.05;;;11.57;;
15913;SDS011;8055;51.930;8.840;2023-04-25T02:23:19;18.58;;;10.25;;
15913;SDS011;8055;51.930;8.840;2023-04-25T02:25:45;21.58;;;10.45;;
15913;SDS011;8055;51.930;8.840;2023-04-25T02:28:10;23.10;;;9.65;;
15913;SDS011;8055;51.930;8.840;2023-04-25T02:30:36;19.38;;;9.88;;
15913;SDS011;8055;51.930;8.840;2023-04-25T02:33:01;20.48;;;9.38;;
15913;SDS011;8055;51.930;8.840;2023-04-25T02:35:27;16.15;;;8.35;;
15913;SDS011;8055;51.930;8.840;2023-04-25T02:37:52;20.65;;;9.43;;
15913;SDS011;8055;51.930;8.840;2023-04-25T02:40:18;17.48;;;8.43;;
15913;SDS011;8055;51.930;8.840;2023-04-25T02:42:43;14.82;;;7.88;;
15913;SDS011;8055;51.930;8.840;2023-04-25T02:45:10;16.88;;;7.57;;
15913;SDS011;8055;51.930;8.840;2023-04-25T02:47:36;16.90;;;7.88;;
15913;SDS011;8055;51.930;8.840;2023-04-25T02:50:02;14.38;;;7.57;;
15913;SDS011;8055;51.930;8.840;2023-04-25T02:52:28;10.82;;;6.53;;
15913;SDS011;8055;51.930;8.840;2023-04-25T02:54:53;11.50;;;6.10;;
15913;SDS011;8055;51.930;8.840;2023-04-25T02:57:19;11.85;;;6.72;;
15913;SDS011;8055;51.930;8.840;2023-04-25T02:59:44;15.10;;;7.22;;
15913;SDS011;8055;51.930;8.840;2023-04-25T03:02:09;11.13;;;6.35;;
15913;SDS011;8055;51.930;8.840;2023-04-25T03:04:35;14.57;;;6.55;;
15913;SDS011;8055;51.930;8.840;2023-04-25T03:07:00;18.88;;;7.00;;
15913;SDS011;8055;51.930;8.840;2023-04-25T03:09:26;17.15;;;5.97;;
15913;SDS011;8055;51.930;8.840;2023-04-25T03:11:52;15.20;;;6.43;;
15913;SDS011;8055;51.930;8.840;2023-04-25T03:14:17;17.35;;;6.53;;
15913;SDS011;8055;51.930;8.840;2023-04-25T03:16:42;12.60;;;6.97;;
15913;SDS011;8055;51.930;8.840;2023-04-25T03:19:08;13.27;;;6.28;;
15913;SDS011;8055;51.930;8.840;2023-04-25T03:21:33;16.02;;;6.10;;
15913;SDS011;8055;51.930;8.840;2023-04-25T03:24:00;15.15;;;5.85;;
15913;SDS011;8055;51.930;8.840;2023-04-25T03:26:27;13.60;;;6.32;;
15913;SDS011;8055;51.930;8.840;2023-04-25T03:28:52;14.65;;;5.85;;
15913;SDS011;8055;51.930;8.840;2023-04-25T03:31:18;11.20;;;6.03;;
15913;SDS011;8055;51.930;8.840;2023-04-25T03:33:43;19.40;;;6.35;;
15913;SDS011;8055;51.930;8.840;2023-04-25T03:36:08;23.40;;;7.53;;
15913;SDS011;8055;51.930;8.840;2023-04-25T03:38:34;15.65;;;5.88;;
15913;SDS011;8055;51.930;8.840;2023-04-25T03:41:00;18.55;;;5.50;;
15913;SDS011;8055;51.930;8.840;2023-04-25T03:43:26;20.42;;;6.28;;
15913;SDS011;8055;51.930;8.840;2023-04-25T03:45:51;21.83;;;5.88;;
15913;SDS011;8055;51.930;8.840;2023-04-25T03:48:17;19.73;;;5.80;;
15913;SDS011;8055;51.930;8.840;2023-04-25T03:50:43;26.40;;;6.53;;
15913;SDS011;8055;51.930;8.840;2023-04-25T03:53:08;21.17;;;5.78;;
15913;SDS011;8055;51.930;8.840;2023-04-25T03:55:33;19.77;;;6.32;;
15913;SDS011;8055;51.930;8.840;2023-04-25T03:57:59;19.88;;;6.68;;
15913;SDS011;8055;51.930;8.840;2023-04-25T04:00:24;23.63;;;6.60;;
15913;SDS011;8055;51.930;8.840;2023-04-25T04:02:50;20.85;;;6.03;;
15913;SDS011;8055;51.930;8.840;2023-04-25T04:05:16;23.58;;;6.43;;
15913;SDS011;8055;51.930;8.840;2023-04-25T04:07:41;19.15;;;5.78;;
15913;SDS011;8055;51.930;8.840;2023-04-25T04:10:08;24.23;;;5.63;;
15913;SDS011;8055;51.930;8.840;2023-04-25T04:12:36;21.52;;;6.00;;
15913;SDS011;8055;51.930;8.840;2023-04-25T04:15:02;22.70;;;5.32;;
15913;SDS011;8055;51.930;8.840;2023-04-25T04:17:29;25.13;;;6.95;;
15913;SDS011;8055;51.930;8.840;2023-04-25T04:19:55;29.92;;;5.97;;
15913;SDS011;8055;51.930;8.840;2023-04-25T04:22:21;30.50;;;6.93;;
15913;SDS011;8055;51.930;8.840;2023-04-25T04:24:47;25.08;;;6.20;;
15913;SDS011;8055;51.930;8.840;2023-04-25T04:27:12;31.92;;;6.82;;
15913;SDS011;8055;51.930;8.840;2023-04-25T04:29:38;27.40;;;7.10;;
15913;SDS011;8055;51.930;8.840;2023-04-25T04:32:04;22.88;;;5.30;;
15913;SDS011;8055;51.930;8.840;2023-04-25T04:34:29;29.63;;;6.38;;
15913;SDS011;8055;51.930;8.840;2023-04-25T04:36:56;25.52;;;6.20;;
15913;SDS011;8055;51.930;8.840;2023-04-25T04:39:21;27.25;;;7.15;;
15913;SDS011;8055;51.930;8.840;2023-04-25T04:41:47;23.10;;;6.30;;
15913;SDS011;8055;51.930;8.840;2023-04-25T04:44:12;24.80;;;5.57;;
15913;SDS011;8055;51.930;8.840;2023-04-25T04:46:39;33.50;;;6.85;;
15913;SDS011;8055;51.930;8.840;2023-04-25T04:49:05;21.20;;;5.47;;
15913;SDS011;8055;51.930;8.840;2023-04-25T04:51:31;31.40;;;6.78;;
15913;SDS011;8055;51.930;8.840;2023-04-25T04:53:58;26.27;;;5.97;;
15913;SDS011;8055;51.930;8.840;2023-04-25T04:56:27;27.45;;;6.65;;
15913;SDS011;8055;51.930;8.840;2023-04-25T04:58:53;26.58;;;6.40;;
15913;SDS011;8055;51.930;8.840;2023-04-25T05:01:18;27.42;;;6.47;;
15913;SDS011;8055;51.930;8.840;2023-04-25T05:03:44;29.30;;;6.53;;
15913;SDS011;8055;51.930;8.840;2023-04-25T05:06:09;29.52;;;6.22;;
15913;SDS011;8055;51.930;8.840;2023-04-25T05:08:36;24.52;;;5.97;;
15913;SDS011;8055;51.930;8.840;2023-04-25T05:11:01;28.98;;;6.15;;
15913;SDS011;8055;51.930;8.840;2023-04-25T05:13:27;27.20;;;6.38;;
15913;SDS011;8055;51.930;8.840;2023-04-25T05:15:52;21.52;;;6.05;;
15913;SDS011;8055;51.930;8.840;2023-04-25T05:18:18;27.30;;;6.15;;
15913;SDS011;8055;51.930;8.840;2023-04-25T05:20:43;22.67;;;5.22;;
15913;SDS011;8055;51.930;8.840;2023-04-25T05:23:08;24.67;;;5.38;;
15913;SDS011;8055;51.930;8.840;2023-04-25T05:25:34;28.50;;;6.03;;
15913;SDS011;8055;51.930;8.840;2023-04-25T05:27:59;27.33;;;5.97;;
15913;SDS011;8055;51.930;8.840;2023-04-25T05:30:25;22.70;;;5.53;;
15913;SDS011;8055;51.930;8.840;2023-04-25T05:32:50;26.55;;;6.18;;
15913;SDS011;8055;51.930;8.840;2023-04-25T05:35:15;23.77;;;6.28;;
15913;SDS011;8055;51.930;8.840;2023-04-25T05:37:41;27.98;;;5.75;;
15913;SDS011;8055;51.930;8.840;2023-04-25T05:40:07;30.52;;;6.25;;
15913;SDS011;8055;51.930;8.840;2023-04-25T05:42:33;31.30;;;6.60;;
15913;SDS011;8055;51.930;8.840;2023-04-25T05:44:59;30.23;;;6.20;;
15913;SDS011;8055;51.930;8.840;2023-04-25T05:47:26;24.02;;;6.85;;
15913;SDS011;8055;51.930;8.840;2023-04-25T05:49:51;33.05;;;7.03;;
15913;SDS011;8055;51.930;8.840;2023-04-25T05:52:17;26.60;;;6.90;;
15913;SDS011;8055;51.930;8.840;2023-04-25T05:54:42;24.98;;;6.18;;
15913;SDS011;8055;51.930;8.840;2023-04-25T05:57:07;25.77;;;6.15;;
15913;SDS011;8055;51.930;8.840;2023-04-25T05:59:34;27.00;;;6.82;;
15913;SDS011;8055;51.930;8.840;2023-04-25T06:01:59;30.83;;;7.35;;
15913;SDS011;8055;51.930;8.840;2023-04-25T06:04:25;30.45;;;7.53;;
15913;SDS011;8055;51.930;8.840;2023-04-25T06:06:51;33.45;;;7.72;;
15913;SDS011;8055;51.930;8.840;2023-04-25T06:09:16;28.35;;;7.18;;
15913;SDS011;8055;51.930;8.840;2023-04-25T06:11:42;25.95;;;8.27;;
15913;SDS011;8055;51.930;8.840;2023-04-25T06:14:07;21.15;;;7.15;;
15913;SDS011;8055;51.930;8.840;2023-04-25T06:16:33;23.65;;;6.53;;
15913;SDS011;8055;51.930;8.840;2023-04-25T06:18:58;25.92;;;7.68;;
15913;SDS011;8055;51.930;8.840;2023-04-25T06:21:23;27.58;;;7.55;;
15913;SDS011;8055;51.930;8.840;2023-04-25T06:23:49;25.92;;;7.05;;
15913;SDS011;8055;51.930;8.840;2023-04-25T06:26:14;27.73;;;7.20;;
15913;SDS011;8055;51.930;8.840;2023-04-25T06:28:39;23.33;;;6.90;;
15913;SDS011;8055;51.930;8.840;2023-04-25T06:31:05;21.33;;;5.80;;
15913;SDS011;8055;51.930;8.840;2023-04-25T06:33:30;23.48;;;5.93;;
15913;SDS011;8055;51.930;8.840;2023-04-25T06:35:56;24.52;;;5.53;;
15913;SDS011;8055;51.930;8.840;2023-04-25T06:38:21;28.95;;;6.72;;
15913;SDS011;8055;51.930;8.840;2023-04-25T06:40:46;24.48;;;4.78;;
15913;SDS011;8055;51.930;8.840;2023-04-25T06:43:12;20.25;;;4.45;;
15913;SDS011;8055;51.930;8.840;2023-04-25T06:45:37;24.85;;;5.05;;
15913;SDS011;8055;51.930;8.840;2023-04-25T06:48:03;21.08;;;6.05;;
15913;SDS011;8055;51.930;8.840;2023-04-25T06:50:28;24.88;;;5.43;;
15913;SDS011;8055;51.930;8.840;2023-04-25T06:52:54;18.80;;;4.18;;
15913;SDS011;8055;51.930;8.840;2023-04-25T06:55:19;24.15;;;4.20;;
15913;SDS011;8055;51.930;8.840;2023-04-25T06:57:45;19.58;;;4.55;;
15913;SDS011;8055;51.930;8.840;2023-04-25T07:00:10;15.65;;;4.47;;
15913;SDS011;8055;51.930;8.840;2023-04-25T07:02:36;27.33;;;5.38;;
15913;SDS011;8055;51.930;8.840;2023-04-25T07:05:02;25.15;;;4.88;;
15913;SDS011;8055;51.930;8.840;2023-04-25T07:07:29;19.48;;;4.82;;
15913;SDS011;8055;51.930;8.840;2023-04-25T07:09:57;20.77;;;5.07;;
15913;SDS011;8055;51.930;8.840;2023-04-25T07:12:23;23.33;;;4.68;;
15913;SDS011;8055;51.930;8.840;2023-04-25T07:14:48;24.58;;;4.72;;
15913;SDS011;8055;51.930;8.840;2023-04-25T07:17:13;16.52;;;4.28;;
15913;SDS011;8055;51.930;8.840;2023-04-25T07:19:39;20.52;;;4.78;;
15913;SDS011;8055;51.930;8.840;2023-04-25T07:22:05;29.02;;;6.10;;
15913;SDS011;8055;51.930;8.840;2023-04-25T07:24:31;17.33;;;4.72;;
15913;SDS011;8055;51.930;8.840;2023-04-25T07:26:56;22.38;;;4.47;;
15913;SDS011;8055;51.930;8.840;2023-04-25T07:29:23;16.75;;;5.35;;
15913;SDS011;8055;51.930;8.840;2023-04-25T07:31:48;24.00;;;4.85;;
15913;SDS011;8055;51.930;8.840;2023-04-25T07:34:14;19.25;;;4.38;;
15913;SDS011;8055;51.930;8.840;2023-04-25T07:36:40;21.38;;;5.03;;
15913;SDS011;8055;51.930;8.840;2023-04-25T07:39:06;25.98;;;5.18;;
15913;SDS011;8055;51.930;8.840;2023-04-25T07:41:31;30.83;;;4.63;;
15913;SDS011;8055;51.930;8.840;2023-04-25T07:43:57;17.23;;;3.95;;
15913;SDS011;8055;51.930;8.840;2023-04-25T07:46:22;23.67;;;4.55;;
15913;SDS011;8055;51.930;8.840;2023-04-25T07:48:48;17.85;;;4.60;;
15913;SDS011;8055;51.930;8.840;2023-04-25T07:51:13;18.90;;;4.72;;
15913;SDS011;8055;51.930;8.840;2023-04-25T07:53:38;19.13;;;4.63;;
15913;SDS011;8055;51.930;8.840;2023-04-25T07:56:04;23.20;;;4.78;;
15913;SDS011;8055;51.930;8.840;2023-04-25T07:58:30;17.10;;;4.03;;
15913;SDS011;8055;51.930;8.840;2023-04-25T08:00:55;16.75;;;3.83;;
15913;SDS011;8055;51.930;8.840;2023-04-25T08:03:20;21.27;;;4.65;;
15913;SDS011;8055;51.930;8.840;2023-04-25T08:05:46;20.55;;;4.68;;
15913;SDS011;8055;51.930;8.840;2023-04-25T08:08:11;14.75;;;3.60;;
15913;SDS011;8055;51.930;8.840;2023-04-25T08:10:37;17.25;;;4.03;;
15913;SDS011;8055;51.930;8.840;2023-04-25T08:13:02;12.70;;;3.08;;
15913;SDS011;8055;51.930;8.840;2023-04-25T08:15:28;26.58;;;5.03;;
15913;SDS011;8055;51.930;8.840;2023-04-25T08:17:53;18.33;;;4.00;;
15913;SDS011;8055;51.930;8.840;2023-04-25T08:20:18;16.67;;;2.90;;
15913;SDS011;8055;51.930;8.840;2023-04-25T08:22:44;14.55;;;3.38;;
15913;SDS011;8055;51.930;8.840;2023-04-25T08:25:09;17.10;;;3.03;;
15913;SDS011;8055;51.930;8.840;2023-04-25T08:27:35;15.40;;;3.40;;
15913;SDS011;8055;51.930;8.840;2023-04-25T08:30:02;17.00;;;3.90;;
15913;SDS011;8055;51.930;8.840;2023-04-25T08:32:28;19.65;;;4.32;;
15913;SDS011;8055;51.930;8.840;2023-04-25T08:34:53;15.13;;;4.03;;
15913;SDS011;8055;51.930;8.840;2023-04-25T08:37:20;13.68;;;3.45;;
15913;SDS011;8055;51.930;8.840;2023-04-25T08:39:46;14.40;;;4.47;;
15913;SDS011;8055;51.930;8.840;2023-04-25T08:42:13;12.07;;;3.13;;
15913;SDS011;8055;51.930;8.840;2023-04-25T08:44:40;11.45;;;2.83;;
15913;SDS011;8055;51.930;8.840;2023-04-25T08:47:05;15.32;;;3.92;;
15913;SDS011;8055;51.930;8.840;2023-04-25T08:49:34;17.23;;;3.45;;
15913;SDS011;8055;51.930;8.840;2023-04-25T08:52:01;13.50;;;3.28;;
15913;SDS011;8055;51.930;8.840;2023-04-25T08:54:30;18.08;;;3.10;;
15913;SDS011;8055;51.930;8.840;2023-04-25T08:56:57;12.57;;;2.90;;
15913;SDS011;8055;51.930;8.840;2023-04-25T08:59:26;12.38;;;2.63;;
15913;SDS011;8055;51.930;8.840;2023-04-25T09:01:53;17.77;;;3.13;;
15913;SDS011;8055;51.930;8.840;2023-04-25T09:04:18;12.60;;;3.20;;
15913;SDS011;8055;51.930;8.840;2023-04-25T09:06:45;9.40;;;2.38;;
15913;SDS011;8055;51.930;8.840;2023-04-25T09:09:11;10.32;;;3.17;;
15913;SDS011;8055;51.930;8.840;2023-04-25T09:11:37;14.13;;;3.28;;
15913;SDS011;8055;51.930;8.840;2023-04-25T09:14:23;12.38;;;3.22;;
15913;SDS011;8055;51.930;8.840;2023-04-25T09:19:22;11.30;;;3.00;;
15913;SDS011;8055;51.930;8.840;2023-04-25T09:21:49;10.68;;;2.90;;
15913;SDS011;8055;51.930;8.840;2023-04-25T09:24:15;11.95;;;2.88;;
15913;SDS011;8055;51.930;8.840;2023-04-25T09:26:40;11.02;;;3.38;;
15913;SDS011;8055;51.930;8.840;2023-04-25T09:29:06;13.25;;;3.17;;
15913;SDS011;8055;51.930;8.840;2023-04-25T09:31:32;13.30;;;2.58;;
15913;SDS011;8055;51.930;8.840;2023-04-25T09:33:59;11.98;;;3.13;;
15913;SDS011;8055;51.930;8.840;2023-04-25T09:36:26;8.52;;;2.97;;
15913;SDS011;8055;51.930;8.840;2023-04-25T09:38:52;10.77;;;2.63;;
15913;SDS011;8055;51.930;8.840;2023-04-25T09:41:22;7.43;;;2.72;;
15913;SDS011;8055;51.930;8.840;2023-04-25T09:43:48;9.68;;;2.60;;
15913;SDS011;8055;51.930;8.840;2023-04-25T09:46:14;13.73;;;2.92;;
15913;SDS011;8055;51.930;8.840;2023-04-25T09:48:40;12.38;;;2.47;;
15913;SDS011;8055;51.930;8.840;2023-04-25T09:51:13;11.98;;;2.78;;
15913;SDS011;8055;51.930;8.840;2023-04-25T09:53:39;11.77;;;2.78;;
15913;SDS011;8055;51.930;8.840;2023-04-25T09:56:07;13.15;;;3.80;;
15913;SDS011;8055;51.930;8.840;2023-04-25T09:58:35;12.27;;;2.45;;
15913;SDS011;8055;51.930;8.840;2023-04-25T10:01:03;9.60;;;3.05;;
15913;SDS011;8055;51.930;8.840;2023-04-25T10:03:34;9.95;;;2.33;;
15913;SDS011;8055;51.930;8.840;2023-04-25T10:06:01;7.55;;;2.47;;
15913;SDS011;8055;51.930;8.840;2023-04-25T10:08:31;11.32;;;2.50;;
15913;SDS011;8055;51.930;8.840;2023-04-25T10:10:59;9.57;;;2.92;;
15913;SDS011;8055;51.930;8.840;2023-04-25T10:13:26;7.63;;;2.60;;
15913;SDS011;8055;51.930;8.840;2023-04-25T10:15:53;11.85;;;2.83;;
15913;SDS011;8055;51.930;8.840;2023-04-25T10:18:19;10.55;;;2.28;;
15913;SDS011;8055;51.930;8.840;2023-04-25T10:20:45;14.52;;;3.10;;
15913;SDS011;8055;51.930;8.840;2023-04-25T10:23:13;10.73;;;2.80;;
15913;SDS011;8055;51.930;8.840;2023-04-25T10:25:41;9.68;;;2.38;;
15913;SDS011;8055;51.930;8.840;2023-04-25T10:28:08;10.02;;;2.20;;
15913;SDS011;8055;51.930;8.840;2023-04-25T10:30:33;5.63;;;2.33;;
15913;SDS011;8055;51.930;8.840;2023-04-25T10:32:58;6.18;;;2.30;;
15913;SDS011;8055;51.930;8.840;2023-04-25T10:38:04;9.25;;;2.67;;
15913;SDS011;8055;51.930;8.840;2023-04-25T10:40:37;17.77;;;3.53;;
15913;SDS011;8055;51.930;8.840;2023-04-25T10:45:59;7.00;;;2.13;;
15913;SDS011;8055;51.930;8.840;2023-04-25T10:48:29;7.45;;;2.08;;
15913;SDS011;8055;51.930;8.840;2023-04-25T10:51:08;10.98;;;2.78;;
15913;SDS011;8055;51.930;8.840;2023-04-25T10:53:35;6.75;;;1.95;;
15913;SDS011;8055;51.930;8.840;2023-04-25T10:56:02;13.82;;;2.85;;
15913;SDS011;8055;51.930;8.840;2023-04-25T10:58:34;9.40;;;2.22;;
15913;SDS011;8055;51.930;8.840;2023-04-25T11:01:00;6.93;;;2.03;;
15913;SDS011;8055;51.930;8.840;2023-04-25T11:03:26;11.50;;;2.78;;
15913;SDS011;8055;51.930;8.840;2023-04-25T11:05:52;9.32;;;2.20;;
15913;SDS011;8055;51.930;8.840;2023-04-25T11:08:19;9.10;;;2.33;;
15913;SDS011;8055;51.930;8.840;2023-04-25T11:11:02;7.45;;;2.13;;
15913;SDS011;8055;51.930;8.840;2023-04-25T11:13:30;8.88;;;2.30;;
15913;SDS011;8055;51.930;8.840;2023-04-25T11:15:56;12.10;;;2.70;;
15913;SDS011;8055;51.930;8.840;2023-04-25T11:18:21;9.77;;;2.38;;
15913;SDS011;8055;51.930;8.840;2023-04-25T11:20:47;8.77;;;2.38;;
15913;SDS011;8055;51.930;8.840;2023-04-25T11:23:13;5.15;;;2.05;;
15913;SDS011;8055;51.930;8.840;2023-04-25T11:25:40;15.85;;;2.30;;
15913;SDS011;8055;51.930;8.840;2023-04-25T11:28:06;6.97;;;1.77;;
15913;SDS011;8055;51.930;8.840;2023-04-25T11:30:31;10.32;;;1.95;;
15913;SDS011;8055;51.930;8.840;2023-04-25T11:32:57;5.95;;;1.95;;
15913;SDS011;8055;51.930;8.840;2023-04-25T11:35:22;7.18;;;2.22;;
15913;SDS011;8055;51.930;8.840;2023-04-25T11:37:48;7.45;;;2.58;;
15913;SDS011;8055;51.930;8.840;2023-04-25T11:40:13;7.13;;;2.38;;
15913;SDS011;8055;51.930;8.840;2023-04-25T11:42:39;10.60;;;1.85;;
15913;SDS011;8055;51.930;8.840;2023-04-25T11:45:09;11.18;;;2.47;;
15913;SDS011;8055;51.930;8.840;2023-04-25T11:47:34;7.95;;;2.20;;
15913;SDS011;8055;51.930;8.840;2023-04-25T11:50:01;9.80;;;2.05;;
15913;SDS011;8055;51.930;8.840;2023-04-25T11:52:41;7.55;;;2.05;;
15913;SDS011;8055;51.930;8.840;2023-04-25T11:55:07;9.18;;;2.45;;
15913;SDS011;8055;51.930;8.840;2023-04-25T11:57:43;8.63;;;2.13;;
15913;SDS011;8055;51.930;8.840;2023-04-25T12:02:45;6.68;;;2.00;;
15913;SDS011;8055;51.930;8.840;2023-04-25T12:05:13;8.00;;;2.38;;
15913;SDS011;8055;51.930;8.840;2023-04-25T12:07:40;5.55;;;1.88;;
15913;SDS011;8055;51.930;8.840;2023-04-25T12:10:09;6.18;;;1.90;;
15913;SDS011;8055;51.930;8.840;2023-04-25T12:12:37;7.47;;;2.42;;
15913;SDS011;8055;51.930;8.840;2023-04-25T12:17:44;9.23;;;2.97;;
15913;SDS011;8055;51.930;8.840;2023-04-25T12:20:15;9.30;;;2.88;;
15913;SDS011;8055;51.930;8.840;2023-04-25T12:22:43;4.63;;;2.37;;
15913;SDS011;8055;51.930;8.840;2023-04-25T12:25:10;9.68;;;2.67;;
15913;SDS011;8055;51.930;8.840;2023-04-25T12:27:37;7.53;;;2.95;;
15913;SDS011;8055;51.930;8.840;2023-04-25T12:30:06;12.50;;;2.65;;
15913;SDS011;8055;51.930;8.840;2023-04-25T12:32:32;10.20;;;2.58;;
15913;SDS011;8055;51.930;8.840;2023-04-25T12:34:57;13.05;;;2.50;;
15913;SDS011;8055;51.930;8.840;2023-04-25T12:37:23;7.28;;;3.35;;
15913;SDS011;8055;51.930;8.840;2023-04-25T12:39:48;13.07;;;3.33;;
15913;SDS011;8055;51.930;8.840;2023-04-25T12:42:13;9.38;;;2.65;;
15913;SDS011;8055;51.930;8.840;2023-04-25T12:44:39;10.20;;;2.75;;
15913;SDS011;8055;51.930;8.840;2023-04-25T12:47:05;9.18;;;2.47;;
15913;SDS011;8055;51.930;8.840;2023-04-25T12:49:31;8.93;;;2.80;;
15913;SDS011;8055;51.930;8.840;2023-04-25T12:51:56;20.25;;;3.03;;
15913;SDS011;8055;51.930;8.840;2023-04-25T12:54:22;7.85;;;2.53;;
15913;SDS011;8055;51.930;8.840;2023-04-25T12:56:47;9.60;;;2.30;;
15913;SDS011;8055;51.930;8.840;2023-04-25T12:59:13;9.77;;;2.63;;
15913;SDS011;8055;51.930;8.840;2023-04-25T13:01:39;12.05;;;2.35;;
15913;SDS011;8055;51.930;8.840;2023-04-25T13:04:04;10.98;;;2.83;;
15913;SDS011;8055;51.930;8.840;2023-04-25T13:06:29;8.35;;;2.58;;
15913;SDS011;8055;51.930;8.840;2023-04-25T13:08:55;8.60;;;1.73;;
15913;SDS011;8055;51.930;8.840;2023-04-25T13:11:21;6.57;;;2.05;;
15913;SDS011;8055;51.930;8.840;2023-04-25T13:13:46;10.88;;;2.17;;
15913;SDS011;8055;51.930;8.840;2023-04-25T13:16:12;6.78;;;1.63;;
15913;SDS011;8055;51.930;8.840;2023-04-25T13:18:40;6.60;;;2.10;;
15913;SDS011;8055;51.930;8.840;2023-04-25T13:21:06;8.68;;;2.30;;
15913;SDS011;8055;51.930;8.840;2023-04-25T13:23:31;7.25;;;2.08;;
15913;SDS011;8055;51.930;8.840;2023-04-25T13:25:56;6.40;;;1.73;;
15913;SDS011;8055;51.930;8.840;2023-04-25T13:28:23;5.97;;;1.60;;
15913;SDS011;8055;51.930;8.840;2023-04-25T13:30:49;5.20;;;1.70;;
15913;SDS011;8055;51.930;8.840;2023-04-25T13:33:15;7.40;;;1.50;;
15913;SDS011;8055;51.930;8.840;2023-04-25T13:35:40;5.20;;;1.70;;
15913;SDS011;8055;51.930;8.840;2023-04-25T13:38:06;7.25;;;2.08;;
15913;SDS011;8055;51.930;8.840;2023-04-25T13:40:32;8.00;;;2.15;;
15913;SDS011;8055;51.930;8.840;2023-04-25T13:42:57;5.40;;;1.98;;
15913;SDS011;8055;51.930;8.840;2023-04-25T13:45:24;3.63;;;1.40;;
15913;SDS011;8055;51.930;8.840;2023-04-25T13:47:49;4.97;;;1.70;;
15913;SDS011;8055;51.930;8.840;2023-04-25T13:50:15;5.13;;;1.40;;
15913;SDS011;8055;51.930;8.840;2023-04-25T13:52:41;5.15;;;1.55;;
15913;SDS011;8055;51.930;8.840;2023-04-25T13:55:07;6.95;;;1.83;;
15913;SDS011;8055;51.930;8.840;2023-04-25T13:57:33;3.17;;;1.30;;
15913;SDS011;8055;51.930;8.840;2023-04-25T13:59:59;5.38;;;1.65;;
15913;SDS011;8055;51.930;8.840;2023-04-25T14:02:29;3.00;;;1.48;;
15913;SDS011;8055;51.930;8.840;2023-04-25T14:04:55;5.43;;;1.60;;
15913;SDS011;8055;51.930;8.840;2023-04-25T14:07:20;4.05;;;1.83;;
15913;SDS011;8055;51.930;8.840;2023-04-25T14:09:46;2.83;;;1.25;;
15913;SDS011;8055;51.930;8.840;2023-04-25T14:12:11;6.30;;;1.75;;
15913;SDS011;8055;51.930;8.840;2023-04-25T14:14:37;4.00;;;1.38;;
15913;SDS011;8055;51.930;8.840;2023-04-25T14:17:03;6.57;;;1.60;;
15913;SDS011;8055;51.930;8.840;2023-04-25T14:19:28;3.35;;;1.23;;
15913;SDS011;8055;51.930;8.840;2023-04-25T14:21:54;4.45;;;1.10;;
15913;SDS011;8055;51.930;8.840;2023-04-25T14:24:20;5.88;;;1.30;;
15913;SDS011;8055;51.930;8.840;2023-04-25T14:26:45;4.60;;;1.25;;
15913;SDS011;8055;51.930;8.840;2023-04-25T14:29:11;4.15;;;1.50;;
15913;SDS011;8055;51.930;8.840;2023-04-25T14:31:37;2.72;;;1.50;;
15913;SDS011;8055;51.930;8.840;2023-04-25T14:34:04;4.20;;;1.52;;
15913;SDS011;8055;51.930;8.840;2023-04-25T14:36:29;3.75;;;1.38;;
15913;SDS011;8055;51.930;8.840;2023-04-25T14:38:56;3.97;;;1.35;;
15913;SDS011;8055;51.930;8.840;2023-04-25T14:41:21;4.60;;;1.25;;
15913;SDS011;8055;51.930;8.840;2023-04-25T14:43:48;4.00;;;1.70;;
15913;SDS011;8055;51.930;8.840;2023-04-25T14:46:13;4.13;;;2.03;;
15913;SDS011;8055;51.930;8.840;2023-04-25T14:48:39;4.22;;;1.77;;
15913;SDS011;8055;51.930;8.840;2023-04-25T14:51:05;5.50;;;1.95;;
15913;SDS011;8055;51.930;8.840;2023-04-25T14:53:30;3.80;;;1.73;;
15913;SDS011;8055;51.930;8.840;2023-04-25T14:55:56;6.13;;;2.30;;
15913;SDS011;8055;51.930;8.840;2023-04-25T14:58:22;4.40;;;1.65;;